Canyon, Texas
Current Conditions -  °F | °C
As of 2:53 PM on Sunday 21 Dec 2014 (Local Time) from KAMA Reporting Station
Clear Clear  
Wind Chill: 58°   Ceiling: Unl
Heat Index: 58°   Visibility: 10mi
Dew Point: 22°   Wind: 5mph
Humidity: 25%   Direction: 190°S
Pressure: 29.65"   Gusts: NA
Location:  34.99°N, 101.93°W
Report Text: KAMA 212053Z 19004KT 10SM CLR 14/M06 A2965 RMK AO2 SLP021 T01441056 56040
Loading
Personal Weather Stations






























Interactive Weather Map New forecast layout! Learn more

10-Day Weather Forecast

Advertisements
Track Severe Weather on mobile